Time;durP1;ratioP1;P1;durP2;ratioP2;P2;SDS_P1;SDS_P2;PMS_P1;PMS_P2;Temp;Humidity;BMP_temperature;BMP_pressure;BME280_temperature;BME280_humidity;BME280_pressure;Samples;Min_cycle;Max_cycle;Signal;HPM_P1;HPM_P2
2021/09/24 00:01:20;;;;;;;2.30;2.00;;;;;;;23.69;38.41;95267.53;5067514;28;20564;-78
2021/09/24 00:03:45;;;;;;;2.50;2.15;;;;;;;23.69;38.11;95270.25;5066245;28;20024;-76
2021/09/24 00:06:11;;;;;;;2.38;1.85;;;;;;;23.70;38.43;95268.25;5066446;28;20075;-77
2021/09/24 00:08:36;;;;;;;2.42;1.85;;;;;;;23.68;38.31;95271.47;5067446;28;20032;-77
2021/09/24 00:11:02;;;;;;;2.72;1.88;;;;;;;23.64;38.45;95271.00;5066512;28;20032;-78
2021/09/24 00:13:27;;;;;;;2.53;2.03;;;;;;;23.64;38.68;95253.91;5066138;28;20032;-80
2021/09/24 00:15:53;;;;;;;2.85;2.08;;;;;;;23.66;38.35;95256.88;5066352;28;20472;-79
2021/09/24 00:18:21;;;;;;;2.83;2.05;;;;;;;23.63;38.77;95257.84;5048112;28;20031;-79
2021/09/24 00:20:46;;;;;;;3.03;2.08;;;;;;;23.66;38.63;95252.16;5066323;28;20024;-79
2021/09/24 00:23:12;;;;;;;2.80;2.00;;;;;;;23.65;38.66;95255.41;5065676;28;20086;-79
2021/09/24 00:25:37;;;;;;;2.78;2.03;;;;;;;23.64;38.70;95254.63;5065593;28;20049;-78
2021/09/24 00:28:05;;;;;;;2.58;1.88;;;;;;;23.64;38.30;95251.19;5066062;28;20032;-79
2021/09/24 00:30:31;;;;;;;2.80;2.05;;;;;;;23.62;38.69;95256.38;5048328;28;20247;-80
2021/09/24 00:32:56;;;;;;;3.70;2.20;;;;;;;23.62;38.59;95268.00;5067956;28;20614;-78
2021/09/24 00:35:22;;;;;;;2.70;2.10;;;;;;;23.61;38.38;95254.88;5065650;28;20498;-79
2021/09/24 00:37:47;;;;;;;2.95;2.03;;;;;;;23.59;38.40;95241.03;5065811;28;20032;-80
2021/09/24 00:40:13;;;;;;;2.97;2.22;;;;;;;23.58;38.78;95245.72;5067130;28;20029;-78
2021/09/24 00:42:38;;;;;;;2.63;2.00;;;;;;;23.59;38.55;95241.03;5070206;28;20062;-78
2021/09/24 00:45:04;;;;;;;2.72;2.20;;;;;;;23.58;38.57;95239.53;5052133;28;20032;-79
2021/09/24 00:47:30;;;;;;;2.42;1.77;;;;;;;23.58;38.92;95228.63;5071392;28;20032;-79
2021/09/24 00:49:55;;;;;;;2.85;1.95;;;;;;;23.56;38.60;95236.59;5070042;28;20040;-79
2021/09/24 00:52:21;;;;;;;3.33;2.10;;;;;;;23.56;39.29;95231.13;5070085;28;20441;-78
2021/09/24 00:54:47;;;;;;;3.72;1.98;;;;;;;23.55;38.71;95226.91;5069810;28;20028;-78
2021/09/24 00:57:13;;;;;;;2.47;1.92;;;;;;;23.53;38.80;95226.69;5069686;28;20498;-78
2021/09/24 00:59:38;;;;;;;2.33;1.75;;;;;;;23.54;38.85;95228.16;5051612;28;20135;-78
2021/09/24 01:02:04;;;;;;;2.30;1.92;;;;;;;23.53;38.92;95223.97;5068291;28;20090;-77
2021/09/24 01:04:29;;;;;;;2.22;1.77;;;;;;;23.54;38.98;95217.25;5069491;28;20048;-79
2021/09/24 01:06:55;;;;;;;2.95;2.40;;;;;;;23.52;38.98;95220.47;5069397;28;20112;-78
2021/09/24 01:09:20;;;;;;;2.92;2.22;;;;;;;23.51;38.84;95223.72;5069712;28;20190;-78
2021/09/24 01:11:46;;;;;;;2.35;1.92;;;;;;;23.53;38.60;95215.78;5068187;28;20387;-78
2021/09/24 01:14:11;;;;;;;5.00;3.15;;;;;;;23.52;38.81;95211.56;5051820;28;20582;-78
2021/09/24 01:16:36;;;;;;;3.00;2.20;;;;;;;23.51;38.74;95212.81;5069091;28;20036;-78
2021/09/24 01:19:02;;;;;;;2.53;1.80;;;;;;;23.53;38.92;95210.34;5069534;28;20019;-77
2021/09/24 01:21:28;;;;;;;3.20;1.98;;;;;;;23.50;38.86;95216.78;5069101;28;20021;-80
2021/09/24 01:23:53;;;;;;;2.42;1.73;;;;;;;23.48;39.15;95214.56;5069289;28;20044;-79
2021/09/24 01:26:19;;;;;;;2.45;1.90;;;;;;;23.50;39.12;95211.34;5068885;28;20028;-80
2021/09/24 01:28:44;;;;;;;3.08;2.13;;;;;;;23.50;38.58;95200.44;5069136;28;20024;-80
2021/09/24 01:31:11;;;;;;;3.40;1.80;;;;;;;23.48;38.83;95197.47;5069377;28;20458;-79
2021/09/24 01:33:37;;;;;;;2.65;2.20;;;;;;;23.47;39.06;95201.44;5068799;28;20058;-79
2021/09/24 01:36:02;;;;;;;2.83;2.10;;;;;;;23.46;39.00;95183.59;5068798;28;20040;-79
2021/09/24 01:38:28;;;;;;;3.13;1.92;;;;;;;23.47;39.20;95185.09;5068892;28;20024;-80
2021/09/24 01:40:53;;;;;;;3.22;1.90;;;;;;;23.46;39.07;95183.59;5069118;28;20054;-78
2021/09/24 01:43:19;;;;;;;2.72;2.15;;;;;;;23.45;39.10;95182.13;5069007;28;20037;-79
2021/09/24 01:45:44;;;;;;;2.55;1.80;;;;;;;23.46;38.94;95184.34;5084313;28;20040;-79
2021/09/24 01:48:10;;;;;;;2.45;1.67;;;;;;;23.47;38.84;95179.66;5068710;28;20406;-79
2021/09/24 01:50:35;;;;;;;2.58;1.95;;;;;;;23.46;39.04;95184.34;5068475;28;20036;-79
2021/09/24 01:53:00;;;;;;;2.90;1.95;;;;;;;23.46;39.02;95189.06;5068583;28;20047;-79
2021/09/24 01:55:26;;;;;;;2.45;1.88;;;;;;;23.45;39.20;95187.56;5050430;28;20453;-79
2021/09/24 01:57:51;;;;;;;2.00;1.70;;;;;;;23.41;39.18;95178.94;5050588;28;20032;-79
2021/09/24 02:00:17;;;;;;;3.15;1.98;;;;;;;23.44;38.90;95186.84;5068628;28;20032;-79
2021/09/24 02:02:42;;;;;;;2.60;1.90;;;;;;;23.42;39.60;95191.31;5068548;28;20115;-79
2021/09/24 02:05:08;;;;;;;2.97;2.05;;;;;;;23.46;39.18;95191.78;5050297;28;20064;-79
2021/09/24 02:07:34;;;;;;;2.35;1.75;;;;;;;23.42;39.25;95177.69;5068676;28;20024;-79
2021/09/24 02:10:00;;;;;;;2.30;1.70;;;;;;;23.41;39.37;95187.13;5068246;28;20046;-79
2021/09/24 02:12:26;;;;;;;3.35;2.20;;;;;;;23.41;38.91;95181.66;5068825;28;20522;-79
2021/09/24 02:14:51;;;;;;;2.90;1.90;;;;;;;23.40;39.15;95196.53;5068387;28;20035;-79
2021/09/24 02:17:17;;;;;;;3.03;2.30;;;;;;;23.43;39.41;95184.63;5068703;28;20561;-79
2021/09/24 02:19:42;;;;;;;2.88;2.10;;;;;;;23.42;39.26;95177.69;5068339;28;20036;-79
2021/09/24 02:22:07;;;;;;;2.78;2.10;;;;;;;23.41;39.20;95173.50;5068023;28;20036;-79
2021/09/24 02:24:33;;;;;;;2.97;2.25;;;;;;;23.40;39.38;95180.19;5068112;28;20082;-79
2021/09/24 02:26:58;;;;;;;3.30;2.00;;;;;;;23.39;39.04;95184.13;5049892;28;20031;-79
2021/09/24 02:29:24;;;;;;;3.33;2.00;;;;;;;23.39;39.42;95178.69;5067564;28;20036;-79
2021/09/24 02:31:49;;;;;;;2.55;1.90;;;;;;;23.37;38.95;95176.47;5050065;28;20024;-78
2021/09/24 02:34:15;;;;;;;2.30;1.83;;;;;;;23.39;39.36;95178.69;5067834;28;20036;-78
2021/09/24 02:36:40;;;;;;;3.10;2.08;;;;;;;23.37;39.38;95175.75;5067635;28;20043;-78
2021/09/24 02:39:06;;;;;;;4.03;1.80;;;;;;;23.37;39.22;95164.09;5067822;28;20029;-79
2021/09/24 02:41:32;;;;;;;3.03;2.13;;;;;;;23.37;39.17;95164.84;5067529;28;20036;-79
2021/09/24 02:43:57;;;;;;;2.85;1.80;;;;;;;23.37;39.31;95170.28;5067681;28;20039;-79
2021/09/24 02:46:22;;;;;;;2.67;1.83;;;;;;;23.35;39.42;95164.63;5067333;28;20509;-79
2021/09/24 02:48:48;;;;;;;2.28;1.85;;;;;;;23.35;39.28;95170.06;5066797;28;20029;-79
2021/09/24 02:51:14;;;;;;;2.00;1.75;;;;;;;23.34;39.45;95160.41;5067347;28;20478;-78
2021/09/24 02:53:39;;;;;;;2.78;1.98;;;;;;;23.35;39.17;95172.78;5067486;28;20161;-79
2021/09/24 02:56:05;;;;;;;2.03;1.60;;;;;;;23.35;39.19;95166.56;5066752;28;20024;-80
2021/09/24 02:58:30;;;;;;;2.65;1.95;;;;;;;23.32;39.53;95168.34;5067329;28;20426;-78
2021/09/24 03:00:56;;;;;;;3.25;2.00;;;;;;;23.32;39.64;95184.69;5067198;28;20130;-78
2021/09/24 03:03:21;;;;;;;2.60;1.98;;;;;;;23.32;39.28;95168.34;5066598;28;20024;-79
2021/09/24 03:05:47;;;;;;;2.95;1.77;;;;;;;23.32;39.09;95167.59;5066688;28;20048;-79
2021/09/24 03:08:12;;;;;;;3.22;1.90;;;;;;;23.31;39.59;95177.75;5066718;28;20035;-79
2021/09/24 03:10:38;;;;;;;3.17;1.88;;;;;;;23.32;39.35;95179.25;5066907;28;20637;-77
2021/09/24 03:13:03;;;;;;;2.83;1.90;;;;;;;23.31;39.27;95187.94;5067129;28;20029;-80
2021/09/24 03:15:29;;;;;;;2.83;2.03;;;;;;;23.31;39.37;95182.47;5033349;28;20020;-79
2021/09/24 03:17:54;;;;;;;4.18;1.95;;;;;;;23.32;39.64;95173.78;5066177;28;20023;-78
2021/09/24 03:20:20;;;;;;;3.15;1.98;;;;;;;23.32;39.16;95173.78;5067847;28;20107;-78
2021/09/24 03:22:45;;;;;;;3.45;2.35;;;;;;;23.30;39.63;95159.91;5066758;28;20491;-79
2021/09/24 03:25:11;;;;;;;2.88;2.00;;;;;;;23.30;39.59;95148.28;5067068;28;20027;-79
2021/09/24 03:27:37;;;;;;;3.65;1.88;;;;;;;23.28;39.33;95156.22;5066551;28;20506;-78
2021/09/24 03:30:03;;;;;;;3.22;2.20;;;;;;;23.28;39.60;95151.50;5048656;28;20490;-78
2021/09/24 03:32:29;;;;;;;2.42;1.98;;;;;;;23.28;39.29;95162.41;5066927;28;20447;-77
2021/09/24 03:34:54;;;;;;;2.38;1.90;;;;;;;23.27;39.26;95155.47;5066562;28;20024;-79
2021/09/24 03:37:20;;;;;;;3.72;2.03;;;;;;;23.28;39.26;95156.97;5048464;28;20077;-79
2021/09/24 03:39:45;;;;;;;3.00;1.95;;;;;;;23.26;39.56;95154.00;5066668;28;20490;-78
2021/09/24 03:42:11;;;;;;;3.08;2.10;;;;;;;23.29;39.40;95157.69;5048733;28;20031;-78
2021/09/24 03:44:37;;;;;;;2.78;2.08;;;;;;;23.27;39.31;95154.75;5066174;28;20110;-79
2021/09/24 03:47:03;;;;;;;2.70;1.80;;;;;;;23.28;39.38;95156.97;5084455;28;20064;-77
2021/09/24 03:49:28;;;;;;;2.55;1.88;;;;;;;23.29;39.91;95152.25;5084275;28;20069;-78
2021/09/24 03:51:54;;;;;;;3.22;2.13;;;;;;;23.30;39.50;95159.91;5066690;28;20024;-78
2021/09/24 03:54:19;;;;;;;4.10;2.15;;;;;;;23.29;39.92;95169.34;5066203;28;20016;-79
2021/09/24 03:56:45;;;;;;;2.45;1.80;;;;;;;23.38;40.02;95171.78;5071038;28;20529;-75
2021/09/24 03:59:11;;;;;;;3.03;2.13;;;;;;;23.36;39.87;95168.06;5081395;28;20031;-75
2021/09/24 04:01:37;;;;;;;3.25;1.83;;;;;;;23.35;40.02;95167.34;5081777;28;20019;-76
2021/09/24 04:04:02;;;;;;;3.00;2.10;;;;;;;23.37;40.02;95153.94;5084098;28;20039;-75
2021/09/24 04:06:28;;;;;;;3.78;2.58;;;;;;;23.36;40.30;95147.00;5082636;28;20036;-76
2021/09/24 04:08:53;;;;;;;3.25;2.10;;;;;;;23.37;40.31;95153.22;5084402;28;20498;-75
2021/09/24 04:11:19;;;;;;;2.97;2.10;;;;;;;23.37;40.24;95148.47;5082988;28;20040;-74
2021/09/24 04:13:44;;;;;;;2.95;1.90;;;;;;;23.37;40.42;95148.47;5083189;28;20040;-75
2021/09/24 04:16:09;;;;;;;3.22;2.30;;;;;;;23.37;40.45;95149.22;5083104;28;20027;-75
2021/09/24 04:18:35;;;;;;;3.70;1.83;;;;;;;23.41;40.35;95159.88;5065539;28;20417;-75
2021/09/24 04:21:00;;;;;;;2.25;1.80;;;;;;;23.40;40.51;95147.47;5085109;28;20016;-75
2021/09/24 04:23:26;;;;;;;2.67;2.00;;;;;;;23.40;40.27;95152.94;5079828;28;20487;-77
2021/09/24 04:25:51;;;;;;;2.53;2.00;;;;;;;23.41;40.39;95159.88;5082482;28;20642;-76
2021/09/24 04:28:16;;;;;;;2.67;1.95;;;;;;;23.41;40.66;95154.41;5063498;28;20516;-76
2021/09/24 04:30:42;;;;;;;3.00;1.90;;;;;;;23.46;40.49;95156.34;5080131;28;20058;-76
2021/09/24 04:33:08;;;;;;;3.47;2.05;;;;;;;23.47;39.85;95163.28;5076528;28;20016;-75
2021/09/24 04:35:33;;;;;;;3.42;2.40;;;;;;;23.46;39.49;95156.34;5062433;28;20498;-76
2021/09/24 04:37:58;;;;;;;2.65;1.90;;;;;;;23.44;39.78;95158.84;5081434;28;20031;-75
2021/09/24 04:40:24;;;;;;;3.17;1.95;;;;;;;23.42;39.65;95150.41;5083472;28;20046;-76
2021/09/24 04:42:49;;;;;;;3.63;2.20;;;;;;;23.42;39.73;95139.53;5079262;28;20124;-72
2021/09/24 04:45:15;;;;;;;5.80;2.63;;;;;;;23.49;39.48;95145.16;5096870;28;20024;-73
2021/09/24 04:47:40;;;;;;;4.25;2.30;;;;;;;23.53;38.86;95144.91;5083387;28;20016;-75
2021/09/24 04:50:06;;;;;;;2.92;2.30;;;;;;;23.55;38.37;95136.97;5082357;28;20422;-75
2021/09/24 04:52:32;;;;;;;3.20;2.47;;;;;;;23.62;38.76;95141.88;5080579;28;20059;-76
2021/09/24 04:54:57;;;;;;;4.65;2.42;;;;;;;23.65;38.30;95141.63;5077884;28;20494;-75
2021/09/24 04:57:23;;;;;;;3.80;2.40;;;;;;;23.73;38.27;95152.72;5082477;28;20027;-76
2021/09/24 04:59:48;;;;;;;5.97;2.20;;;;;;;23.78;39.33;95154.66;5065363;28;20536;-75
2021/09/24 05:02:14;;;;;;;5.47;2.10;;;;;;;23.86;39.13;95161.06;5065590;28;20543;-77
2021/09/24 05:04:42;;;;;;;4.18;2.42;;;;;;;23.99;39.12;95159.94;5065350;28;20040;-73
2021/09/24 05:07:07;;;;;;;3.95;2.40;;;;;;;24.02;38.76;95153.44;5079907;28;20040;-73
2021/09/24 05:09:33;;;;;;;4.00;2.35;;;;;;;24.07;38.00;95155.38;5080246;28;20504;-74
2021/09/24 05:11:58;;;;;;;3.45;2.50;;;;;;;24.17;38.42;95164.72;5082582;28;20491;-74
2021/09/24 05:14:24;;;;;;;3.25;2.40;;;;;;;24.24;38.26;95164.16;5083431;28;20024;-72
2021/09/24 05:16:50;;;;;;;3.42;2.30;;;;;;;24.29;37.97;95182.47;5082070;28;20478;-72
2021/09/24 05:19:15;;;;;;;5.28;2.28;;;;;;;24.35;37.41;95180.47;5083917;28;20020;-73
2021/09/24 05:21:41;;;;;;;3.63;2.50;;;;;;;24.36;36.99;95165.53;5084002;28;20027;-74
2021/09/24 05:24:06;;;;;;;3.80;2.30;;;;;;;24.45;37.50;95185.06;5093052;28;20089;-73
2021/09/24 05:26:31;;;;;;;3.83;2.38;;;;;;;24.52;37.01;95183.75;5082367;28;20390;-75
2021/09/24 05:28:57;;;;;;;4.00;2.40;;;;;;;24.60;37.16;95168.25;5065703;28;20028;-75
2021/09/24 05:31:22;;;;;;;4.35;2.60;;;;;;;24.63;38.83;95157.03;5087618;28;20024;-77
2021/09/24 05:33:48;;;;;;;3.78;2.25;;;;;;;24.68;38.77;95158.22;5087900;28;20020;-77
2021/09/24 05:36:14;;;;;;;3.55;2.33;;;;;;;24.79;37.67;95158.84;5084427;28;20028;-76
2021/09/24 05:38:40;;;;;;;4.03;2.47;;;;;;;24.77;38.51;95155.16;5065439;28;20085;-76
2021/09/24 05:41:06;;;;;;;4.32;2.42;;;;;;;24.80;38.03;95143.19;5084535;28;20111;-75
2021/09/24 05:43:32;;;;;;;2.75;2.30;;;;;;;24.91;38.90;95133.59;5086351;28;20028;-76
2021/09/24 05:45:57;;;;;;;4.70;2.38;;;;;;;24.86;38.38;95137.16;5085717;28;20032;-79
2021/09/24 05:48:23;;;;;;;3.17;2.35;;;;;;;24.93;37.42;95131.13;5084823;28;20093;-80
2021/09/24 05:50:48;;;;;;;3.40;2.65;;;;;;;24.86;37.80;95131.69;5066089;28;20088;-75
2021/09/24 05:53:14;;;;;;;4.13;2.60;;;;;;;24.86;38.27;95130.97;5086778;28;20020;-74
2021/09/24 05:55:40;;;;;;;4.80;2.50;;;;;;;24.90;37.68;95131.41;5102073;28;20026;-74
2021/09/24 05:58:06;;;;;;;3.38;2.33;;;;;;;24.98;37.73;95138.50;5082718;28;20046;-79
2021/09/24 06:00:31;;;;;;;7.30;2.45;;;;;;;24.99;37.28;95109.19;5051268;28;20024;-81
2021/09/24 06:02:56;;;;;;;3.47;2.33;;;;;;;24.98;37.17;95127.56;5097233;28;20032;-78
2021/09/24 06:05:22;;;;;;;4.82;2.72;;;;;;;25.07;37.40;95129.97;5070226;28;20070;-76
2021/09/24 06:07:48;;;;;;;4.43;2.50;;;;;;;25.12;37.04;95137.34;5084328;28;20028;-80
2021/09/24 06:10:14;;;;;;;4.78;2.60;;;;;;;25.26;36.52;95135.41;5090246;28;20478;-78
2021/09/24 06:12:40;;;;;;;5.07;2.55;;;;;;;25.29;36.95;95146.06;5088090;28;20027;-83
2021/09/24 06:15:06;;;;;;;5.07;2.72;;;;;;;25.34;36.51;95147.97;5086287;28;20036;-79
2021/09/24 06:17:32;;;;;;;6.72;3.00;;;;;;;25.35;36.03;95171.31;5077242;28;20024;-76
2021/09/24 06:19:57;;;;;;;4.93;2.60;;;;;;;25.45;36.13;95158.75;5079324;28;20047;-81
2021/09/24 06:22:24;;;;;;;5.20;2.90;;;;;;;25.55;35.52;95151.66;5083572;28;20059;-79
2021/09/24 06:24:49;;;;;;;5.15;2.72;;;;;;;25.53;35.28;95154.13;5071746;28;20097;-77
2021/09/24 06:27:15;;;;;;;5.97;2.58;;;;;;;25.62;35.18;95161.97;5086299;28;20020;-80
2021/09/24 06:29:43;;;;;;;5.70;3.03;;;;;;;25.60;35.28;95159.03;5071665;28;20024;-78
2021/09/24 06:32:08;;;;;;;3.72;2.65;;;;;;;25.63;35.10;95157.97;5055232;28;20080;-75
2021/09/24 06:34:35;;;;;;;5.55;2.83;;;;;;;25.58;35.31;95156.06;5070967;28;20640;-76
2021/09/24 06:37:00;;;;;;;5.63;2.65;;;;;;;25.60;35.35;95153.53;5083356;28;20020;-78
2021/09/24 06:39:26;;;;;;;4.22;2.80;;;;;;;25.67;35.37;95147.50;5073416;28;20418;-79
2021/09/24 06:41:51;;;;;;;3.63;2.60;;;;;;;25.59;35.24;95146.59;5082510;28;20413;-78
2021/09/24 06:44:17;;;;;;;4.97;2.88;;;;;;;25.59;35.18;95152.06;5105459;28;20020;-78
2021/09/24 06:46:42;;;;;;;4.57;2.88;;;;;;;25.59;34.90;95157.53;5104547;28;20027;-79
2021/09/24 06:49:08;;;;;;;5.72;3.10;;;;;;;25.65;34.69;95150.00;5113365;28;20020;-78
2021/09/24 06:51:43;;;;;;;4.82;2.90;;;;;;;25.64;34.56;95141.06;5080508;28;20500;-80
2021/09/24 06:54:18;;;;;;;3.85;3.00;;;;;;;25.59;34.51;95147.34;5093733;28;20044;-79
2021/09/24 06:56:43;;;;;;;7.57;3.20;;;;;;;25.48;34.83;95135.81;5095466;28;20410;-79
2021/09/24 06:59:12;;;;;;;5.05;3.00;;;;;;;25.40;34.69;95145.91;5094272;28;20024;-77
2021/09/24 07:01:37;;;;;;;4.80;3.05;;;;;;;25.36;34.40;95139.97;5103736;28;20060;-78
2021/09/24 07:04:03;;;;;;;5.55;3.05;;;;;;;25.29;35.16;95126.16;5080518;28;20045;-78
2021/09/24 07:06:28;;;;;;;4.28;3.03;;;;;;;25.25;34.55;95123.75;5082371;28;20021;-77
2021/09/24 07:08:53;;;;;;;4.53;3.13;;;;;;;25.24;35.15;95133.19;5092055;28;20024;-77
2021/09/24 07:11:19;;;;;;;4.43;2.75;;;;;;;25.18;35.09;95112.66;5044451;28;20078;-77
2021/09/24 07:13:44;;;;;;;4.57;3.25;;;;;;;25.13;35.00;95116.97;5068488;28;20063;-77
2021/09/24 07:16:10;;;;;;;4.97;3.17;;;;;;;25.06;35.56;95123.00;5081821;28;20020;-77
2021/09/24 07:18:35;;;;;;;3.83;2.72;;;;;;;25.02;34.93;95111.66;5082516;28;20078;-77
2021/09/24 07:21:01;;;;;;;10.13;3.03;;;;;;;24.96;35.30;95102.75;5086992;28;20085;-76
2021/09/24 07:23:26;;;;;;;4.05;2.90;;;;;;;24.92;35.75;95118.69;5083468;28;20177;-78
2021/09/24 07:25:52;;;;;;;4.43;3.03;;;;;;;24.82;35.90;95136.69;5078465;28;20031;-77
2021/09/24 07:28:17;;;;;;;6.38;3.17;;;;;;;24.78;35.35;95134.78;5082708;28;20055;-77
2021/09/24 07:30:43;;;;;;;5.65;3.17;;;;;;;24.77;36.25;95133.31;5082685;28;20047;-76
2021/09/24 07:33:08;;;;;;;5.60;2.78;;;;;;;24.77;36.18;95144.22;5077414;28;20036;-77
2021/09/24 07:35:34;;;;;;;5.78;3.15;;;;;;;24.73;36.39;95149.25;5048982;28;20478;-77
2021/09/24 07:38:00;;;;;;;5.20;3.00;;;;;;;24.70;35.96;95150.28;5045798;28;20028;-78
2021/09/24 07:40:27;;;;;;;4.90;2.83;;;;;;;24.64;35.84;95158.53;5061185;28;20694;-78
2021/09/24 07:42:53;;;;;;;3.85;2.85;;;;;;;24.61;36.44;95156.84;5066640;28;20031;-78
2021/09/24 07:45:18;;;;;;;4.53;2.80;;;;;;;24.62;36.53;95161.03;5083598;28;20793;-76
2021/09/24 07:47:44;;;;;;;4.50;2.85;;;;;;;24.62;35.97;95168.47;5079218;28;20039;-77
2021/09/24 07:50:10;;;;;;;4.60;2.85;;;;;;;24.58;36.14;95165.31;5077114;28;20032;-77
2021/09/24 07:52:35;;;;;;;4.15;2.78;;;;;;;24.57;36.24;95169.28;5069908;28;20058;-77
2021/09/24 07:55:00;;;;;;;5.55;3.10;;;;;;;24.56;36.57;95173.28;5075424;28;20566;-77
2021/09/24 07:57:26;;;;;;;4.32;2.50;;;;;;;24.56;36.20;95173.28;5075607;28;20111;-78
2021/09/24 07:59:51;;;;;;;3.90;2.65;;;;;;;24.56;36.45;95179.47;5066418;28;20482;-77
2021/09/24 08:02:17;;;;;;;4.28;2.60;;;;;;;24.52;36.36;95173.56;5084457;28;20067;-76
2021/09/24 08:04:42;;;;;;;8.73;5.20;;;;;;;24.53;30.94;95157.94;5070015;28;20052;-76
2021/09/24 08:07:08;;;;;;;8.30;4.88;;;;;;;24.43;31.34;95159.53;5066478;28;20025;-74
2021/09/24 08:09:35;;;;;;;7.97;4.15;;;;;;;24.12;32.76;95151.13;5077976;28;20047;-76
2021/09/24 08:12:00;;;;;;;7.10;3.55;;;;;;;24.06;33.59;95153.91;5068061;28;20033;-77
2021/09/24 08:14:26;;;;;;;8.13;3.33;;;;;;;24.11;34.52;95155.09;5078167;28;20016;-78
2021/09/24 08:16:51;;;;;;;5.03;3.20;;;;;;;24.16;34.59;95140.69;5076673;28;20470;-78
2021/09/24 08:19:16;;;;;;;5.90;3.22;;;;;;;24.18;34.72;95127.97;5067827;28;20032;-77
2021/09/24 08:21:42;;;;;;;6.80;3.53;;;;;;;24.21;35.40;95116.03;5082483;28;20038;-77
2021/09/24 08:24:07;;;;;;;5.00;3.47;;;;;;;24.23;35.12;95108.09;5079631;28;20040;-77
2021/09/24 08:26:33;;;;;;;4.97;3.10;;;;;;;24.24;35.50;95104.09;5068561;28;20020;-76
2021/09/24 08:28:58;;;;;;;7.53;3.03;;;;;;;24.22;35.35;95111.34;5071052;28;20042;-77
2021/09/24 08:31:25;;;;;;;6.78;3.42;;;;;;;24.27;35.41;95108.53;5073547;28;20025;-77
2021/09/24 08:33:50;;;;;;;4.38;3.20;;;;;;;24.24;35.95;95136.84;5066051;28;20081;-78
2021/09/24 08:36:16;;;;;;;4.93;3.10;;;;;;;24.27;35.79;95107.81;5081743;28;20032;-78
2021/09/24 08:38:42;;;;;;;4.82;3.20;;;;;;;24.25;35.96;95116.50;5074502;28;20421;-76
2021/09/24 08:41:07;;;;;;;5.60;3.08;;;;;;;24.28;35.95;95120.94;5084639;28;20081;-77
2021/09/24 08:43:33;;;;;;;4.90;3.13;;;;;;;24.27;36.05;95119.44;5074310;28;20029;-79
2021/09/24 08:45:58;;;;;;;5.80;2.90;;;;;;;24.28;36.30;95115.47;5082409;28;20046;-78
2021/09/24 08:48:24;;;;;;;4.10;2.78;;;;;;;24.27;35.93;95114.00;5071446;28;20051;-78
2021/09/24 08:50:51;;;;;;;4.25;2.60;;;;;;;24.30;35.67;95118.44;5064809;28;20776;-78
2021/09/24 08:53:19;;;;;;;5.22;3.17;;;;;;;24.29;36.32;95108.78;5080581;28;20030;-76
2021/09/24 08:55:45;;;;;;;3.55;2.58;;;;;;;24.31;36.26;95119.91;5063322;28;20020;-78
2021/09/24 08:58:12;;;;;;;5.32;3.40;;;;;;;24.31;35.94;95109.00;5062131;28;20058;-78
2021/09/24 09:00:37;;;;;;;4.13;2.72;;;;;;;24.31;36.26;95106.28;5084060;28;20043;-78
2021/09/24 09:03:03;;;;;;;4.15;2.97;;;;;;;24.38;36.02;95108.47;5063938;28;20021;-78
2021/09/24 09:05:33;;;;;;;6.07;3.40;;;;;;;24.40;36.55;95095.03;5069865;28;20139;-77
2021/09/24 09:08:10;;;;;;;4.63;3.05;;;;;;;24.40;36.01;95095.03;5085123;28;20020;-78
2021/09/24 09:11:02;;;;;;;5.15;3.03;;;;;;;24.41;35.74;95091.78;5069850;28;20059;-79
2021/09/24 09:13:37;;;;;;;6.05;3.20;;;;;;;24.41;35.42;95096.53;5067092;28;20111;-77
2021/09/24 09:16:04;;;;;;;4.53;3.05;;;;;;;24.43;36.09;95094.00;5084918;28;20032;-77
2021/09/24 09:18:32;;;;;;;5.43;3.35;;;;;;;24.52;35.20;95096.38;5078053;28;20115;-80
2021/09/24 09:20:59;;;;;;;4.65;3.22;;;;;;;24.54;36.88;95093.88;5051421;28;20055;-77
2021/09/24 09:23:25;;;;;;;5.05;3.10;;;;;;;24.57;35.99;95090.09;5069101;28;20021;-77
2021/09/24 09:25:50;;;;;;;4.85;3.15;;;;;;;24.65;37.24;95089.03;5084688;28;20024;-77
2021/09/24 09:28:28;;;;;;;5.70;3.30;;;;;;;24.71;35.88;95086.19;5068910;28;20025;-77
2021/09/24 09:30:53;;;;;;;5.90;3.10;;;;;;;24.76;35.92;95088.88;5063757;28;20044;-77
2021/09/24 09:33:19;;;;;;;7.18;3.40;;;;;;;24.82;36.00;95069.69;5068837;28;20017;-78
2021/09/24 09:35:46;;;;;;;6.20;3.22;;;;;;;24.91;35.64;95062.56;5084446;28;20504;-78
2021/09/24 09:38:20;;;;;;;5.32;2.95;;;;;;;24.99;34.80;95068.97;5068746;28;20029;-78
2021/09/24 09:40:48;;;;;;;4.70;3.05;;;;;;;25.06;34.85;95057.44;5073028;28;20024;-73
2021/09/24 09:43:27;;;;;;;5.20;2.85;;;;;;;25.20;35.45;95050.78;5067180;28;20028;-80
2021/09/24 09:45:52;;;;;;;6.35;2.97;;;;;;;25.28;34.89;95050.91;5068566;28;20024;-73
2021/09/24 09:48:18;;;;;;;3.95;2.97;;;;;;;25.41;34.80;95048.94;5070359;28;20551;-80
2021/09/24 09:50:43;;;;;;;5.18;3.72;;;;;;;25.56;34.84;95049.19;5069268;28;20138;-78
2021/09/24 09:53:11;;;;;;;6.30;2.90;;;;;;;25.57;34.42;95039.72;5068334;28;20033;-73
2021/09/24 09:55:41;;;;;;;4.35;3.05;;;;;;;25.72;34.28;95045.47;5068491;28;20066;-78
2021/09/24 09:58:09;;;;;;;4.72;2.83;;;;;;;25.72;34.13;95040.00;5068339;28;20482;-82
2021/09/24 10:00:35;;;;;;;4.53;2.58;;;;;;;25.73;33.80;95042.19;5068997;28;20055;-80
2021/09/24 10:03:09;;;;;;;4.50;2.70;;;;;;;25.79;33.75;95039.38;5066583;28;20037;-79
2021/09/24 10:05:39;;;;;;;4.10;3.00;;;;;;;25.93;33.24;95038.84;5084216;28;20060;-76
2021/09/24 10:08:25;;;;;;;3.47;2.55;;;;;;;26.02;33.20;95025.50;5050421;28;20029;-78
2021/09/24 10:10:58;;;;;;;4.93;2.95;;;;;;;26.13;33.09;95036.25;5072683;28;20390;-75
2021/09/24 10:13:25;;;;;;;4.82;2.70;;;;;;;26.15;32.69;95028.22;5078880;28;20020;-75
2021/09/24 10:15:51;;;;;;;5.50;2.75;;;;;;;26.24;32.51;95030.53;5074307;28;20078;-77
2021/09/24 10:18:16;;;;;;;5.10;2.60;;;;;;;26.22;32.97;95033.06;5068602;28;20009;-76
2021/09/24 10:20:42;;;;;;;3.33;2.28;;;;;;;26.49;33.30;95029.06;5068750;28;20036;-78
2021/09/24 10:23:07;;;;;;;4.55;2.55;;;;;;;26.68;33.03;95035.13;5083853;28;20032;-75
2021/09/24 10:25:34;;;;;;;3.95;2.25;;;;;;;26.81;32.67;95039.31;5050209;28;20030;-76
2021/09/24 10:28:03;;;;;;;6.22;2.22;;;;;;;26.87;31.55;95037.19;5078942;28;20036;-79
2021/09/24 10:30:29;;;;;;;6.97;2.33;;;;;;;26.82;31.74;95040.78;5066502;28;20090;-78
2021/09/24 10:33:18;;;;;;;5.07;2.83;;;;;;;26.71;31.76;95028.59;5084492;28;20024;-78
2021/09/24 10:35:50;;;;;;;3.70;2.20;;;;;;;26.64;32.05;95029.25;5082117;28;20024;-79
2021/09/24 10:38:17;;;;;;;3.15;2.28;;;;;;;26.61;32.10;95024.84;5086238;28;20031;-80
2021/09/24 10:41:02;;;;;;;4.07;2.10;;;;;;;26.56;31.84;95028.41;5082843;28;20051;-79
2021/09/24 10:43:34;;;;;;;3.92;2.70;;;;;;;26.58;32.11;95043.06;5097052;28;20039;-78
2021/09/24 10:46:00;;;;;;;4.95;2.33;;;;;;;26.53;32.30;95040.44;5075208;28;20040;-78
2021/09/24 10:48:25;;;;;;;3.85;2.08;;;;;;;26.52;32.30;95017.78;5061013;28;20032;-78
2021/09/24 10:50:52;;;;;;;4.55;2.35;;;;;;;26.49;32.41;95012.66;5075711;28;20051;-80
2021/09/24 10:53:22;;;;;;;3.45;2.28;;;;;;;26.44;32.71;95010.75;5096362;28;20096;-80
2021/09/24 10:55:51;;;;;;;;;;;;;;;26.36;32.71;95004.44;5078942;28;20152;-79
2021/09/24 10:58:28;;;;;;;4.00;2.20;;;;;;;26.33;32.54;95017.19;5079203;28;20597;-80
2021/09/24 11:00:58;;;;;;;2.78;1.90;;;;;;;26.30;32.87;95017.50;5076523;28;20024;-77
2021/09/24 11:03:25;;;;;;;4.75;2.13;;;;;;;26.29;32.96;94989.41;5077446;28;20580;-78
2021/09/24 11:06:02;;;;;;;4.35;2.15;;;;;;;26.26;32.92;94984.19;5042211;28;20048;-78
2021/09/24 11:08:37;;;;;;;4.70;1.90;;;;;;;26.21;33.11;94987.06;5026868;28;20426;-79
2021/09/24 11:11:18;;;;;;;2.80;2.03;;;;;;;26.19;32.91;94990.31;5028003;28;20574;-78
2021/09/24 11:13:50;;;;;;;3.30;1.92;;;;;;;26.20;33.25;94997.25;5044998;28;20074;-79
2021/09/24 11:16:48;;;;;;;3.72;2.08;;;;;;;26.14;33.41;94993.91;5046480;28;20029;-79
2021/09/24 11:19:38;;;;;;;3.05;2.00;;;;;;;26.14;33.37;94977.47;5033932;28;20246;-78
2021/09/24 11:22:37;;;;;;;3.25;1.85;;;;;;;26.11;33.29;94978.53;5017231;28;20033;-77
2021/09/24 11:25:08;;;;;;;4.18;2.00;;;;;;;26.08;33.58;94963.16;5033919;28;20028;-78
2021/09/24 11:27:36;;;;;;;3.05;2.10;;;;;;;26.07;33.73;94967.19;5040398;28;20021;-79
2021/09/24 11:30:02;;;;;;;3.42;1.95;;;;;;;26.01;33.84;94958.34;5048467;28;20021;-79
2021/09/24 11:32:36;;;;;;;3.60;1.98;;;;;;;25.97;33.84;94957.91;5044023;28;20087;-78